Time;durP1;ratioP1;P1;durP2;ratioP2;P2;SDS_P1;SDS_P2;PMS_P1;PMS_P2;Temp;Humidity;BMP_temperature;BMP_pressure;BME280_temperature;BME280_humidity;BME280_pressure;Samples;Min_cycle;Max_cycle;Signal;HPM_P1;HPM_P2
2022/10/19 00:02:16;;;;;;;12.35;11.45;;;;;;;;;;5012987;28;20034;-72
2022/10/19 00:04:41;;;;;;;12.07;11.23;;;;;;;;;;5015850;28;20030;-72
2022/10/19 00:07:07;;;;;;;12.50;11.70;;;;;;;;;;5017163;28;20030;-71
2022/10/19 00:09:32;;;;;;;13.65;12.75;;;;;;;;;;5013885;28;20098;-70
2022/10/19 00:11:58;;;;;;;12.40;11.60;;;;;;;;;;5012215;28;20060;-70
2022/10/19 00:14:23;;;;;;;12.10;11.30;;;;;;;;;;5016256;28;20123;-71
2022/10/19 00:16:51;;;;;;;12.27;11.48;;;;;;;;;;5014752;28;20022;-71
2022/10/19 00:19:23;;;;;;;13.07;11.90;;;;;;;;;;5014999;28;20083;-70
2022/10/19 00:21:49;;;;;;;12.80;11.93;;;;;;;;;;5018087;28;20495;-70
2022/10/19 00:24:15;;;;;;;13.50;12.60;;;;;;;;;;5016289;28;20119;-69
2022/10/19 00:26:40;;;;;;;12.48;11.65;;;;;;;;;;5013611;28;20026;-69
2022/10/19 00:29:06;;;;;;;12.98;12.02;;;;;;;;;;5014133;28;20025;-69
2022/10/19 00:31:32;;;;;;;12.93;12.02;;;;;;;;;;5017202;28;20037;-70
2022/10/19 00:33:58;;;;;;;12.10;11.30;;;;;;;;;;5016155;28;20117;-70
2022/10/19 00:36:24;;;;;;;12.23;11.43;;;;;;;;;;5015020;28;20029;-70
2022/10/19 00:38:50;;;;;;;12.70;11.85;;;;;;;;;;5013060;28;20040;-70
2022/10/19 00:41:18;;;;;;;12.32;11.52;;;;;;;;;;5013270;28;20033;-71
2022/10/19 00:43:57;;;;;;;12.50;11.68;;;;;;;;;;5014528;28;20116;-72
2022/10/19 00:46:23;;;;;;;12.45;11.55;;;;;;;;;;5013520;28;20452;-72
2022/10/19 00:48:51;;;;;;;11.20;10.50;;;;;;;;;;5011697;28;20120;-71
2022/10/19 00:51:17;;;;;;;12.57;11.50;;;;;;;;;;5014406;28;20033;-72
2022/10/19 00:53:43;;;;;;;11.95;11.15;;;;;;;;;;5013278;28;20040;-72
2022/10/19 00:56:11;;;;;;;13.60;12.65;;;;;;;;;;5013398;28;20371;-73
2022/10/19 00:58:39;;;;;;;12.77;11.45;;;;;;;;;;5027403;28;20049;-72
2022/10/19 01:01:08;;;;;;;12.98;11.88;;;;;;;;;;5014058;28;20030;-72
2022/10/19 01:03:33;;;;;;;13.25;12.35;;;;;;;;;;5015617;28;20034;-72
2022/10/19 01:05:59;;;;;;;12.10;11.30;;;;;;;;;;5013644;28;20507;-64
2022/10/19 01:08:26;;;;;;;11.57;10.73;;;;;;;;;;5017129;28;20038;-64
2022/10/19 01:11:10;;;;;;;11.90;11.18;;;;;;;;;;5015769;28;20030;-64
2022/10/19 01:13:59;;;;;;;13.23;12.23;;;;;;;;;;5021833;28;20018;-63
2022/10/19 01:16:42;;;;;;;14.20;13.25;;;;;;;;;;5018980;28;20033;-63
2022/10/19 01:19:19;;;;;;;12.18;11.38;;;;;;;;;;5018038;28;20092;-63
2022/10/19 01:21:54;;;;;;;12.63;11.82;;;;;;;;;;5017789;28;20038;-63
2022/10/19 01:24:33;;;;;;;11.85;11.07;;;;;;;;;;5016312;28;20057;-63
2022/10/19 01:27:19;;;;;;;13.57;12.68;;;;;;;;;;5016182;28;20033;-63
2022/10/19 01:30:00;;;;;;;12.85;12.02;;;;;;;;;;5015886;28;20037;-63
2022/10/19 01:32:31;;;;;;;11.43;10.73;;;;;;;;;;5014419;28;20095;-63
2022/10/19 01:35:05;;;;;;;13.38;12.48;;;;;;;;;;5015752;28;20034;-63
2022/10/19 01:37:43;;;;;;;12.40;11.50;;;;;;;;;;5019594;28;20475;-63
2022/10/19 01:40:18;;;;;;;12.18;11.38;;;;;;;;;;5018330;28;20069;-63
2022/10/19 01:42:48;;;;;;;13.65;12.85;;;;;;;;;;5018749;28;20029;-63
2022/10/19 01:45:23;;;;;;;12.90;12.10;;;;;;;;;;5017142;28;20065;-64
2022/10/19 01:48:05;;;;;;;12.45;11.63;;;;;;;;;;5016329;28;20029;-63
2022/10/19 01:50:39;;;;;;;11.88;11.18;;;;;;;;;;5016782;28;20038;-63
2022/10/19 01:53:07;;;;;;;14.00;12.95;;;;;;;;;;5012518;28;20452;-63
2022/10/19 01:55:35;;;;;;;13.50;12.50;;;;;;;;;;5016739;28;20379;-63
2022/10/19 01:58:05;;;;;;;12.98;12.07;;;;;;;;;;5015202;28;20029;-63
2022/10/19 02:00:36;;;;;;;13.32;12.52;;;;;;;;;;5018076;28;20370;-63
2022/10/19 02:03:04;;;;;;;13.18;12.38;;;;;;;;;;5017688;28;20455;-63
2022/10/19 02:05:31;;;;;;;14.40;12.85;;;;;;;;;;5018990;28;20534;-63
2022/10/19 02:08:01;;;;;;;13.32;12.52;;;;;;;;;;5015216;28;20054;-63
2022/10/19 02:10:28;;;;;;;13.90;12.90;;;;;;;;;;5018407;28;20076;-63
2022/10/19 02:12:54;;;;;;;14.77;13.57;;;;;;;;;;5016488;28;20480;-62
2022/10/19 02:15:22;;;;;;;12.70;11.80;;;;;;;;;;5019431;28;20030;-63
2022/10/19 02:17:51;;;;;;;12.20;11.40;;;;;;;;;;5019131;28;20029;-63
2022/10/19 02:20:17;;;;;;;11.00;10.30;;;;;;;;;;5017696;28;20038;-62
2022/10/19 02:22:43;;;;;;;11.93;11.15;;;;;;;;;;5016277;28;20063;-63
2022/10/19 02:25:09;;;;;;;11.68;10.88;;;;;;;;;;5018071;28;20760;-62
2022/10/19 02:27:40;;;;;;;11.40;10.68;;;;;;;;;;5013631;28;20021;-63
2022/10/19 02:30:11;;;;;;;11.13;10.32;;;;;;;;;;5017913;28;20065;-63
2022/10/19 02:32:36;;;;;;;11.93;11.23;;;;;;;;;;5016608;28;20029;-69
2022/10/19 02:35:02;;;;;;;11.20;10.45;;;;;;;;;;5016014;28;20037;-68
2022/10/19 02:37:27;;;;;;;11.20;10.40;;;;;;;;;;5015007;28;20038;-69
2022/10/19 02:39:53;;;;;;;10.77;10.07;;;;;;;;;;5015263;28;20100;-71
2022/10/19 02:42:31;;;;;;;11.60;10.80;;;;;;;;;;5015064;28;20026;-70
2022/10/19 02:44:58;;;;;;;11.35;10.07;;;;;;;;;;5017855;28;20152;-70
2022/10/19 02:47:28;;;;;;;11.63;10.82;;;;;;;;;;5017664;28;20037;-69
2022/10/19 02:49:54;;;;;;;12.07;11.07;;;;;;;;;;5015526;28;20443;-70
2022/10/19 02:52:19;;;;;;;11.85;10.95;;;;;;;;;;5019070;28;20180;-69
2022/10/19 02:54:45;;;;;;;11.13;10.35;;;;;;;;;;5016939;28;20064;-70
2022/10/19 02:57:17;;;;;;;10.98;10.05;;;;;;;;;;5014067;28;20022;-69
2022/10/19 02:59:42;;;;;;;10.63;9.93;;;;;;;;;;5015845;28;20452;-70
2022/10/19 03:02:07;;;;;;;11.43;10.63;;;;;;;;;;5013557;28;20065;-70
2022/10/19 03:04:33;;;;;;;11.77;10.98;;;;;;;;;;5018766;28;20566;-70
2022/10/19 03:06:58;;;;;;;12.05;11.02;;;;;;;;;;5016031;28;20345;-70
2022/10/19 03:09:23;;;;;;;12.13;11.20;;;;;;;;;;5015587;28;20042;-70
2022/10/19 03:11:49;;;;;;;11.25;10.55;;;;;;;;;;5014331;28;20025;-71
2022/10/19 03:14:14;;;;;;;11.85;11.05;;;;;;;;;;5015696;28;20111;-70
2022/10/19 03:16:40;;;;;;;12.23;11.32;;;;;;;;;;5016230;28;20025;-70
2022/10/19 03:19:05;;;;;;;12.20;11.27;;;;;;;;;;5015101;28;20113;-70
2022/10/19 03:21:32;;;;;;;12.18;11.38;;;;;;;;;;5013756;28;20534;-70
2022/10/19 03:23:59;;;;;;;12.20;11.38;;;;;;;;;;5015530;28;20108;-69
2022/10/19 03:26:25;;;;;;;14.27;13.27;;;;;;;;;;5014341;28;20034;-70
2022/10/19 03:28:50;;;;;;;13.98;12.98;;;;;;;;;;5015423;28;20442;-70
2022/10/19 03:31:16;;;;;;;14.77;13.68;;;;;;;;;;5015587;28;20648;-70
2022/10/19 03:33:41;;;;;;;16.10;14.70;;;;;;;;;;5017760;28;20618;-69
2022/10/19 03:36:19;;;;;;;11.95;11.20;;;;;;;;;;5016050;28;20120;-70
2022/10/19 03:38:45;;;;;;;11.95;11.15;;;;;;;;;;5013930;28;20455;-70
2022/10/19 03:41:11;;;;;;;14.55;13.50;;;;;;;;;;5014048;28;20042;-70
2022/10/19 03:43:36;;;;;;;13.35;12.45;;;;;;;;;;5016865;28;20028;-71
2022/10/19 03:46:01;;;;;;;12.88;11.98;;;;;;;;;;5013445;28;20630;-70
2022/10/19 03:48:27;;;;;;;13.15;12.32;;;;;;;;;;5012594;28;20065;-70
2022/10/19 03:51:09;;;;;;;14.48;13.57;;;;;;;;;;5014629;28;20121;-70
2022/10/19 03:53:35;;;;;;;12.70;11.70;;;;;;;;;;5015994;28;20037;-70
2022/10/19 03:56:06;;;;;;;12.77;11.98;;;;;;;;;;5013695;28;20410;-70
2022/10/19 03:58:35;;;;;;;15.23;13.98;;;;;;;;;;5014812;28;20045;-71
2022/10/19 04:01:05;;;;;;;13.23;12.43;;;;;;;;;;5013766;28;20075;-71
2022/10/19 04:03:30;;;;;;;15.30;14.30;;;;;;;;;;5023244;28;20128;-71
2022/10/19 04:06:08;;;;;;;14.60;13.57;;;;;;;;;;5015287;28;20108;-72
2022/10/19 04:08:34;;;;;;;14.80;13.60;;;;;;;;;;5015433;28;20036;-70
2022/10/19 04:11:05;;;;;;;13.48;12.63;;;;;;;;;;5009304;28;20117;-71
2022/10/19 04:13:32;;;;;;;14.30;13.20;;;;;;;;;;5016592;28;20037;-71
2022/10/19 04:15:58;;;;;;;13.35;12.52;;;;;;;;;;5014355;28;20030;-71
2022/10/19 04:18:23;;;;;;;14.65;13.75;;;;;;;;;;5012973;28;20048;-70
2022/10/19 04:20:55;;;;;;;12.35;11.55;;;;;;;;;;5016633;28;20490;-71
2022/10/19 04:23:20;;;;;;;13.23;12.32;;;;;;;;;;5016271;28;20072;-70
2022/10/19 04:25:45;;;;;;;13.52;12.63;;;;;;;;;;5016922;28;20483;-70
2022/10/19 04:28:11;;;;;;;13.60;12.63;;;;;;;;;;5014374;28;20029;-70
2022/10/19 04:30:36;;;;;;;14.18;13.07;;;;;;;;;;5016770;28;20037;-69
2022/10/19 04:33:01;;;;;;;13.77;12.82;;;;;;;;;;5018625;28;20293;-71
2022/10/19 04:35:27;;;;;;;14.77;13.68;;;;;;;;;;5004531;28;20475;-70
2022/10/19 04:37:52;;;;;;;13.45;12.50;;;;;;;;;;5015504;28;20108;-70
2022/10/19 04:40:17;;;;;;;12.10;11.30;;;;;;;;;;5019767;28;20029;-71
2022/10/19 04:42:43;;;;;;;13.52;12.50;;;;;;;;;;5017140;28;20017;-71
2022/10/19 04:45:09;;;;;;;11.90;11.10;;;;;;;;;;5020203;28;20033;-70
2022/10/19 04:47:34;;;;;;;13.30;12.25;;;;;;;;;;5020769;28;20033;-72
2022/10/19 04:49:59;;;;;;;13.13;12.02;;;;;;;;;;5020010;28;20712;-69
2022/10/19 04:52:25;;;;;;;11.60;10.80;;;;;;;;;;5019088;28;20040;-69
2022/10/19 04:54:50;;;;;;;11.68;10.73;;;;;;;;;;5022971;28;20108;-69
2022/10/19 04:57:16;;;;;;;12.43;11.52;;;;;;;;;;5020102;28;20049;-68
2022/10/19 04:59:41;;;;;;;12.23;11.43;;;;;;;;;;5023901;28;20459;-70
2022/10/19 05:02:06;;;;;;;13.95;12.90;;;;;;;;;;5020481;28;20088;-70
2022/10/19 05:04:32;;;;;;;14.77;13.77;;;;;;;;;;5021763;28;20026;-69
2022/10/19 05:06:57;;;;;;;12.15;11.25;;;;;;;;;;5021152;28;20033;-69
2022/10/19 05:09:23;;;;;;;11.93;11.13;;;;;;;;;;5021497;28;20034;-70
2022/10/19 05:11:49;;;;;;;13.30;12.20;;;;;;;;;;5017539;28;20135;-70
2022/10/19 05:14:14;;;;;;;13.00;12.10;;;;;;;;;;5020062;28;20056;-69
2022/10/19 05:16:40;;;;;;;12.88;11.98;;;;;;;;;;5019690;28;20029;-69
2022/10/19 05:19:05;;;;;;;12.15;11.32;;;;;;;;;;5019994;28;20040;-69
2022/10/19 05:21:31;;;;;;;13.60;12.48;;;;;;;;;;5018509;28;20025;-69
2022/10/19 05:23:56;;;;;;;13.85;12.65;;;;;;;;;;5017680;28;20029;-71
2022/10/19 05:26:24;;;;;;;12.57;11.73;;;;;;;;;;5017450;28;20116;-71
2022/10/19 05:28:55;;;;;;;13.85;12.85;;;;;;;;;;5018225;28;20171;-69
2022/10/19 05:31:21;;;;;;;14.48;13.40;;;;;;;;;;5017167;28;20659;-69
2022/10/19 05:33:47;;;;;;;12.80;11.90;;;;;;;;;;5021859;28;20043;-69
2022/10/19 05:36:28;;;;;;;13.13;12.32;;;;;;;;;;5022680;28;20101;-66
2022/10/19 05:38:55;;;;;;;;;;;;;;;;;;5019195;28;20040;-71
2022/10/19 05:41:22;;;;;;;12.20;11.30;;;;;;;;;;5019227;28;20361;-68
2022/10/19 05:43:52;;;;;;;11.90;11.10;;;;;;;;;;5015786;28;20100;-69
2022/10/19 05:46:18;;;;;;;14.52;13.23;;;;;;;;;;5017224;28;20040;-68
2022/10/19 05:48:44;;;;;;;12.55;11.65;;;;;;;;;;5019913;28;20522;-68
2022/10/19 05:51:12;;;;;;;12.10;11.20;;;;;;;;;;5018903;28;20045;-68
2022/10/19 05:53:38;;;;;;;12.43;11.57;;;;;;;;;;5021280;28;20029;-68
2022/10/19 05:56:04;;;;;;;11.90;10.82;;;;;;;;;;5020696;28;20076;-67
2022/10/19 05:58:30;;;;;;;13.18;12.07;;;;;;;;;;5018913;28;20128;-68
2022/10/19 06:00:58;;;;;;;15.63;14.18;;;;;;;;;;5015089;28;20159;-70
2022/10/19 06:03:24;;;;;;;13.05;11.95;;;;;;;;;;5020191;28;20032;-69
2022/10/19 06:05:50;;;;;;;13.55;12.65;;;;;;;;;;5017138;28;20021;-69
2022/10/19 06:08:17;;;;;;;12.50;11.50;;;;;;;;;;5017102;28;20045;-65
2022/10/19 06:10:43;;;;;;;12.18;11.40;;;;;;;;;;5016416;28;20029;-69
2022/10/19 06:13:09;;;;;;;11.50;10.68;;;;;;;;;;5017000;28;20029;-69
2022/10/19 06:15:35;;;;;;;12.15;11.25;;;;;;;;;;5014524;28;20041;-66
2022/10/19 06:18:03;;;;;;;12.65;11.48;;;;;;;;;;5017668;28;20083;-68
2022/10/19 06:20:29;;;;;;;13.13;12.13;;;;;;;;;;5016942;28;20046;-68
2022/10/19 06:22:55;;;;;;;13.23;12.13;;;;;;;;;;5018115;28;20467;-66
2022/10/19 06:25:20;;;;;;;13.75;12.70;;;;;;;;;;5015817;28;20022;-68
2022/10/19 06:27:46;;;;;;;12.60;11.63;;;;;;;;;;4998881;28;20681;-68
2022/10/19 06:30:12;;;;;;;10.90;10.20;;;;;;;;;;5017048;28;20447;-67
2022/10/19 06:32:37;;;;;;;12.30;11.50;;;;;;;;;;5017123;28;20116;-68
2022/10/19 06:35:03;;;;;;;11.02;10.32;;;;;;;;;;5019370;28;20045;-68
2022/10/19 06:37:28;;;;;;;11.98;11.10;;;;;;;;;;5018093;28;20076;-66
2022/10/19 06:39:53;;;;;;;11.80;10.93;;;;;;;;;;5016129;28;20116;-68
2022/10/19 06:42:19;;;;;;;12.10;11.30;;;;;;;;;;5014672;28;20036;-69
2022/10/19 06:44:44;;;;;;;11.65;10.75;;;;;;;;;;5017396;28;20060;-68
2022/10/19 06:47:10;;;;;;;12.98;11.88;;;;;;;;;;5014338;28;20482;-68
2022/10/19 06:49:36;;;;;;;12.52;11.50;;;;;;;;;;5019646;28;20029;-68
2022/10/19 06:52:01;;;;;;;11.27;10.57;;;;;;;;;;5019384;28;20064;-68
2022/10/19 06:54:27;;;;;;;12.43;11.63;;;;;;;;;;5018657;28;20116;-68
2022/10/19 06:56:52;;;;;;;12.23;11.43;;;;;;;;;;5015805;28;20403;-68
2022/10/19 06:59:18;;;;;;;11.50;10.70;;;;;;;;;;5016299;28;20041;-68
2022/10/19 07:01:43;;;;;;;11.50;10.70;;;;;;;;;;5018077;28;20109;-68
2022/10/19 07:04:09;;;;;;;11.77;10.98;;;;;;;;;;5015375;28;20065;-68
2022/10/19 07:06:34;;;;;;;11.18;10.43;;;;;;;;;;5019628;28;20044;-68
2022/10/19 07:09:01;;;;;;;12.35;11.18;;;;;;;;;;5017106;28;20038;-68
2022/10/19 07:11:27;;;;;;;11.63;10.85;;;;;;;;;;5016667;28;20156;-68
2022/10/19 07:13:52;;;;;;;11.63;10.85;;;;;;;;;;5014785;28;20180;-68
2022/10/19 07:16:18;;;;;;;11.70;10.90;;;;;;;;;;5014022;28;20037;-68
2022/10/19 07:18:43;;;;;;;12.27;11.43;;;;;;;;;;5010559;28;20029;-68
2022/10/19 07:21:11;;;;;;;11.07;10.38;;;;;;;;;;5013658;28;20781;-67
2022/10/19 07:23:38;;;;;;;11.30;10.48;;;;;;;;;;5016645;28;20044;-68
2022/10/19 07:26:06;;;;;;;10.75;10.05;;;;;;;;;;5015213;28;20037;-68
2022/10/19 07:28:32;;;;;;;11.27;10.48;;;;;;;;;;5015310;28;20029;-68
2022/10/19 07:30:57;;;;;;;11.02;10.32;;;;;;;;;;5016834;28;20029;-68
2022/10/19 07:33:23;;;;;;;11.68;10.88;;;;;;;;;;5017394;28;20454;-68
2022/10/19 07:35:48;;;;;;;11.25;10.50;;;;;;;;;;5014666;28;20426;-68
2022/10/19 07:38:14;;;;;;;11.93;11.10;;;;;;;;;;5015965;28;20038;-68
2022/10/19 07:40:39;;;;;;;11.80;11.00;;;;;;;;;;5022661;28;20086;-69
2022/10/19 07:43:04;;;;;;;12.77;11.98;;;;;;;;;;5015285;28;20513;-68
2022/10/19 07:45:31;;;;;;;13.05;12.05;;;;;;;;;;5008483;28;20046;-68
2022/10/19 07:47:58;;;;;;;13.30;12.40;;;;;;;;;;4997061;28;20623;-68
2022/10/19 07:50:24;;;;;;;14.25;13.35;;;;;;;;;;4999919;28;20117;-69
2022/10/19 07:52:53;;;;;;;14.23;13.23;;;;;;;;;;4995396;28;20026;-68
2022/10/19 07:55:18;;;;;;;12.60;11.75;;;;;;;;;;4999782;28;20411;-68
2022/10/19 07:57:47;;;;;;;13.35;12.55;;;;;;;;;;4999249;28;20200;-69
2022/10/19 08:00:14;;;;;;;14.40;13.50;;;;;;;;;;4997205;28;20045;-68
2022/10/19 08:02:40;;;;;;;15.00;14.00;;;;;;;;;;4996440;28;20041;-68
2022/10/19 08:05:06;;;;;;;14.00;13.00;;;;;;;;;;4997256;28;20456;-69
2022/10/19 08:07:34;;;;;;;14.25;13.30;;;;;;;;;;4995440;28;20505;-70
2022/10/19 08:09:59;;;;;;;13.75;12.88;;;;;;;;;;4994363;28;20026;-69
2022/10/19 08:12:25;;;;;;;10.25;9.57;;;;;;;;;;4992881;28;20072;-68
2022/10/19 08:14:52;;;;;;;9.43;8.63;;;;;;;;;;4994352;28;20026;-66
2022/10/19 08:17:17;;;;;;;8.68;8.05;;;;;;;;;;4995127;28;20048;-67
2022/10/19 08:19:44;;;;;;;8.65;8.05;;;;;;;;;;4998592;28;20029;-68
2022/10/19 08:22:10;;;;;;;8.68;7.85;;;;;;;;;;4992018;28;20041;-68
2022/10/19 08:24:35;;;;;;;10.02;8.95;;;;;;;;;;4997116;28;20022;-69
2022/10/19 08:27:01;;;;;;;8.57;7.97;;;;;;;;;;4995455;28;20567;-67
2022/10/19 08:29:27;;;;;;;7.72;7.13;;;;;;;;;;4994105;28;20029;-65
2022/10/19 08:31:52;;;;;;;8.63;8.05;;;;;;;;;;4995354;28;20042;-68
2022/10/19 08:34:18;;;;;;;9.63;8.98;;;;;;;;;;4996836;28;20030;-69
2022/10/19 08:36:43;;;;;;;9.77;9.07;;;;;;;;;;4995879;28;20113;-67
2022/10/19 08:39:11;;;;;;;10.10;9.35;;;;;;;;;;4994688;28;20030;-68
2022/10/19 08:41:39;;;;;;;11.05;10.18;;;;;;;;;;4996762;28;20044;-68
2022/10/19 08:44:28;;;;;;;9.13;8.52;;;;;;;;;;4993701;28;20537;-68
2022/10/19 08:47:17;;;;;;;8.48;7.88;;;;;;;;;;4997903;28;20605;-67
2022/10/19 08:49:44;;;;;;;8.48;7.88;;;;;;;;;;4994710;28;20128;-68
2022/10/19 08:52:17;;;;;;;8.02;7.50;;;;;;;;;;4994213;28;20038;-68
2022/10/19 08:54:50;;;;;;;7.90;7.30;;;;;;;;;;4994575;28;20052;-67
2022/10/19 08:57:30;;;;;;;8.13;7.57;;;;;;;;;;4992479;28;20030;-66
2022/10/19 09:00:05;;;;;;;7.88;7.28;;;;;;;;;;4997250;28;20041;-65
2022/10/19 09:02:39;;;;;;;8.45;7.75;;;;;;;;;;4993425;28;20061;-65
2022/10/19 09:05:31;;;;;;;9.57;8.77;;;;;;;;;;4992382;28;20350;-65
2022/10/19 09:07:57;;;;;;;9.80;9.00;;;;;;;;;;4993913;28;20022;-65
2022/10/19 09:10:27;;;;;;;8.68;8.07;;;;;;;;;;5002474;28;20304;-65
2022/10/19 09:12:59;;;;;;;8.82;8.23;;;;;;;;;;4991621;28;20031;-65
2022/10/19 09:15:43;;;;;;;8.38;7.78;;;;;;;;;;4992649;28;20030;-65
2022/10/19 09:18:10;;;;;;;8.82;8.23;;;;;;;;;;4996192;28;20447;-67
2022/10/19 09:20:45;;;;;;;8.90;8.20;;;;;;;;;;4995900;28;20348;-63
2022/10/19 09:23:25;;;;;;;8.63;8.02;;;;;;;;;;4995495;28;20030;-65
2022/10/19 09:25:51;;;;;;;9.85;9.15;;;;;;;;;;4995862;28;20464;-64
2022/10/19 09:28:25;;;;;;;8.93;8.32;;;;;;;;;;4994910;28;20038;-65
2022/10/19 09:30:53;;;;;;;10.63;9.73;;;;;;;;;;4999437;28;20100;-66
2022/10/19 09:33:29;;;;;;;9.20;8.52;;;;;;;;;;4998872;28;20053;-64
2022/10/19 09:35:56;;;;;;;8.77;8.15;;;;;;;;;;4997512;28;20457;-65
2022/10/19 09:38:25;;;;;;;8.35;7.70;;;;;;;;;;5000497;28;20121;-64
2022/10/19 09:40:51;;;;;;;9.13;8.52;;;;;;;;;;4999463;28;20104;-64
2022/10/19 09:43:19;;;;;;;8.75;8.15;;;;;;;;;;4998086;28;20575;-64
2022/10/19 09:46:04;;;;;;;8.65;8.00;;;;;;;;;;4998320;28;20093;-65
2022/10/19 09:48:36;;;;;;;8.57;7.97;;;;;;;;;;4997571;28;20149;-65
2022/10/19 09:51:11;;;;;;;8.55;7.95;;;;;;;;;;4997562;28;20046;-65
2022/10/19 09:53:37;;;;;;;8.30;7.75;;;;;;;;;;4997747;28;20452;-64
2022/10/19 09:56:05;;;;;;;9.05;8.20;;;;;;;;;;4999153;28;20053;-64
2022/10/19 09:58:31;;;;;;;8.57;7.97;;;;;;;;;;4998949;28;20112;-65
2022/10/19 10:00:57;;;;;;;9.13;8.43;;;;;;;;;;4996108;28;20100;-65
2022/10/19 10:03:30;;;;;;;9.13;8.43;;;;;;;;;;4995874;28;20038;-65
2022/10/19 10:06:05;;;;;;;9.00;8.00;;;;;;;;;;4997843;28;20074;-66
2022/10/19 10:08:35;;;;;;;8.35;7.75;;;;;;;;;;4996264;28;20054;-65
2022/10/19 10:11:19;;;;;;;8.73;8.13;;;;;;;;;;4998726;28;20038;-66
2022/10/19 10:13:50;;;;;;;9.23;8.48;;;;;;;;;;4997464;28;20027;-65
2022/10/19 10:16:19;;;;;;;9.25;8.52;;;;;;;;;;4996608;28;20081;-65
2022/10/19 10:18:59;;;;;;;8.07;7.47;;;;;;;;;;4999086;28;20066;-65
2022/10/19 10:21:30;;;;;;;9.15;8.45;;;;;;;;;;4999287;28;20121;-65
2022/10/19 10:24:04;;;;;;;8.13;7.60;;;;;;;;;;4998538;28;20369;-66
2022/10/19 10:26:30;;;;;;;8.52;7.82;;;;;;;;;;4996880;28;20031;-64
2022/10/19 10:28:56;;;;;;;9.77;9.00;;;;;;;;;;4998169;28;20036;-63
2022/10/19 10:31:24;;;;;;;9.23;8.50;;;;;;;;;;4999158;28;20034;-62
2022/10/19 10:33:56;;;;;;;8.77;8.18;;;;;;;;;;4998454;28;20034;-61
2022/10/19 10:36:24;;;;;;;8.82;8.00;;;;;;;;;;4997756;28;20068;-66
2022/10/19 10:38:54;;;;;;;9.43;8.73;;;;;;;;;;4997993;28;20872;-65
2022/10/19 10:41:23;;;;;;;9.10;8.50;;;;;;;;;;4997857;28;20029;-65
2022/10/19 10:44:05;;;;;;;9.15;8.52;;;;;;;;;;5000936;28;20032;-65
2022/10/19 10:46:38;;;;;;;8.40;7.80;;;;;;;;;;4998864;28;20042;-64
2022/10/19 10:49:06;;;;;;;9.10;8.50;;;;;;;;;;5030142;28;20033;-63
2022/10/19 10:51:38;;;;;;;8.77;8.15;;;;;;;;;;4997966;28;20034;-64
2022/10/19 10:54:17;;;;;;;10.75;9.85;;;;;;;;;;4997070;28;20586;-63
2022/10/19 10:56:55;;;;;;;10.15;9.45;;;;;;;;;;4999261;28;20068;-64
2022/10/19 10:59:26;;;;;;;10.70;9.98;;;;;;;;;;5000989;28;20030;-62
2022/10/19 11:01:57;;;;;;;;;;;;;;;;;;4995249;28;20138;-64
2022/10/19 11:04:38;;;;;;;9.95;9.30;;;;;;;;;;5028818;28;19932;-63
2022/10/19 11:07:16;;;;;;;9.38;8.68;;;;;;;;;;4998869;28;20122;-64
2022/10/19 11:09:45;;;;;;;9.73;9.02;;;;;;;;;;4995894;28;20026;-63
2022/10/19 11:12:15;;;;;;;9.65;8.95;;;;;;;;;;5011659;28;20029;-64
2022/10/19 11:15:03;;;;;;;9.90;9.18;;;;;;;;;;5000097;28;20030;-64
2022/10/19 11:17:32;;;;;;;9.73;8.95;;;;;;;;;;4998024;28;20022;-64
2022/10/19 11:19:58;;;;;;;10.25;9.55;;;;;;;;;;4997713;28;20041;-63
2022/10/19 11:22:38;;;;;;;10.75;9.95;;;;;;;;;;5000266;28;20038;-64
2022/10/19 11:25:25;;;;;;;12.05;11.25;;;;;;;;;;4999268;28;20021;-64
2022/10/19 11:28:07;;;;;;;11.57;10.77;;;;;;;;;;4997430;28;20034;-62
2022/10/19 11:30:40;;;;;;;14.00;12.73;;;;;;;;;;4996479;28;20503;-64
2022/10/19 11:33:27;;;;;;;13.18;12.38;;;;;;;;;;4997655;28;20572;-64
2022/10/19 11:35:58;;;;;;;14.40;13.52;;;;;;;;;;4996997;28;20036;-62
2022/10/19 11:38:35;;;;;;;15.48;14.38;;;;;;;;;;4996013;28;20522;-63
2022/10/19 11:41:29;;;;;;;14.68;13.77;;;;;;;;;;4997824;28;20401;-62
2022/10/19 11:44:08;;;;;;;14.70;13.85;;;;;;;;;;4997040;28;20419;-61
2022/10/19 11:47:10;;;;;;;15.52;14.52;;;;;;;;;;4995987;28;20072;-62
2022/10/19 11:50:03;;;;;;;17.67;16.67;;;;;;;;;;4997254;28;20120;-62
2022/10/19 11:52:45;;;;;;;16.15;15.10;;;;;;;;;;4993580;28;20033;-62
2022/10/19 11:55:27;;;;;;;15.70;14.80;;;;;;;;;;4995369;28;20041;-63
2022/10/19 11:57:56;;;;;;;18.40;17.40;;;;;;;;;;4995052;28;20376;-63
2022/10/19 12:00:22;;;;;;;18.95;17.85;;;;;;;;;;4999246;28;20033;-63
2022/10/19 12:03:09;;;;;;;17.45;16.45;;;;;;;;;;4996434;28;20065;-63
2022/10/19 12:06:15;;;;;;;18.08;16.95;;;;;;;;;;4999237;28;20045;-63
2022/10/19 12:08:56;;;;;;;20.25;19.15;;;;;;;;;;4998830;28;20099;-65
2022/10/19 12:11:35;;;;;;;21.00;19.80;;;;;;;;;;4999681;28;20033;-64
2022/10/19 12:14:08;;;;;;;19.17;18.08;;;;;;;;;;4996415;28;20061;-65
2022/10/19 12:16:40;;;;;;;19.20;18.10;;;;;;;;;;4997614;28;20037;-62
2022/10/19 12:19:14;;;;;;;17.75;16.65;;;;;;;;;;4997632;28;20022;-63
2022/10/19 12:21:42;;;;;;;14.20;13.32;;;;;;;;;;4995861;28;20096;-65
2022/10/19 12:24:16;;;;;;;17.38;16.38;;;;;;;;;;4997470;28;20037;-63
2022/10/19 12:26:43;;;;;;;17.33;16.33;;;;;;;;;;4997445;28;20542;-63
2022/10/19 12:29:16;;;;;;;15.52;14.63;;;;;;;;;;4996546;28;20038;-63
2022/10/19 12:31:43;;;;;;;15.63;14.73;;;;;;;;;;4997770;28;20364;-62
2022/10/19 12:34:30;;;;;;;14.63;13.73;;;;;;;;;;5000272;28;20030;-62
2022/10/19 12:36:58;;;;;;;16.17;15.20;;;;;;;;;;4996713;28;20146;-62
2022/10/19 12:39:26;;;;;;;17.25;15.80;;;;;;;;;;4997451;28;20041;-62
2022/10/19 12:42:13;;;;;;;14.93;14.02;;;;;;;;;;4996454;28;20068;-63
2022/10/19 12:44:51;;;;;;;14.10;13.20;;;;;;;;;;4998459;28;20397;-64
2022/10/19 12:47:18;;;;;;;14.85;12.88;;;;;;;;;;4999035;28;20044;-63
2022/10/19 12:49:49;;;;;;;17.80;16.80;;;;;;;;;;4993665;28;20404;-62
2022/10/19 12:52:33;;;;;;;15.38;14.48;;;;;;;;;;4992237;28;20049;-64
2022/10/19 12:55:09;;;;;;;18.27;16.88;;;;;;;;;;4997203;28;20034;-66
2022/10/19 12:57:37;;;;;;;18.38;17.33;;;;;;;;;;4994221;28;20055;-64
2022/10/19 13:00:22;;;;;;;19.90;18.80;;;;;;;;;;4994303;28;20044;-64
2022/10/19 13:02:57;;;;;;;21.88;20.67;;;;;;;;;;4994775;28;20040;-64
2022/10/19 13:05:25;;;;;;;20.98;19.88;;;;;;;;;;4988786;28;20121;-64
2022/10/19 13:07:51;;;;;;;20.65;19.45;;;;;;;;;;4999252;28;21373;-65
2022/10/19 13:10:23;;;;;;;20.67;19.38;;;;;;;;;;5001416;28;20049;-64
2022/10/19 13:12:49;;;;;;;20.85;19.60;;;;;;;;;;5001230;28;20026;-64
2022/10/19 13:15:33;;;;;;;21.40;20.20;;;;;;;;;;4996210;28;20164;-64
2022/10/19 13:17:59;;;;;;;20.50;19.35;;;;;;;;;;5001876;28;20074;-67
2022/10/19 13:20:24;;;;;;;19.70;18.60;;;;;;;;;;4997752;28;20060;-65
2022/10/19 13:23:09;;;;;;;17.60;16.60;;;;;;;;;;4998184;28;20511;-62
2022/10/19 13:25:39;;;;;;;17.45;16.45;;;;;;;;;;4997944;28;20044;-65
2022/10/19 13:28:16;;;;;;;19.08;18.00;;;;;;;;;;4998589;28;20423;-63
2022/10/19 13:30:42;;;;;;;17.10;15.77;;;;;;;;;;5000278;28;20053;-63
2022/10/19 13:33:32;;;;;;;16.20;15.30;;;;;;;;;;5001659;28;20038;-62
2022/10/19 13:35:57;;;;;;;16.88;15.90;;;;;;;;;;4996840;28;20495;-63
2022/10/19 13:38:32;;;;;;;18.02;16.98;;;;;;;;;;4997151;28;20077;-64
2022/10/19 13:41:10;;;;;;;16.63;15.68;;;;;;;;;;4998084;28;20028;-63
2022/10/19 13:43:53;;;;;;;15.85;14.95;;;;;;;;;;4993042;28;20061;-64
2022/10/19 13:46:38;;;;;;;15.38;14.40;;;;;;;;;;4998148;28;20070;-64
2022/10/19 13:49:12;;;;;;;15.30;14.40;;;;;;;;;;4997768;28;20045;-63
2022/10/19 13:51:57;;;;;;;12.20;11.48;;;;;;;;;;4997607;28;20471;-63
2022/10/19 13:54:37;;;;;;;15.82;14.73;;;;;;;;;;4998864;28;20176;-66
2022/10/19 13:57:28;;;;;;;12.27;11.55;;;;;;;;;;5002970;28;20038;-69
2022/10/19 14:00:08;;;;;;;11.10;10.40;;;;;;;;;;5000305;28;20717;-65
2022/10/19 14:02:51;;;;;;;10.13;9.50;;;;;;;;;;4999033;28;20494;-66
2022/10/19 14:05:46;;;;;;;12.88;12.07;;;;;;;;;;4997617;28;20525;-69
2022/10/19 14:08:29;;;;;;;15.80;14.90;;;;;;;;;;5000493;28;20061;-69
2022/10/19 14:11:12;;;;;;;15.82;14.93;;;;;;;;;;4999130;28;20042;-65
2022/10/19 14:13:37;;;;;;;16.42;15.52;;;;;;;;;;5003275;28;20037;-66
2022/10/19 14:16:03;;;;;;;19.85;18.75;;;;;;;;;;4996825;28;20030;-67
2022/10/19 14:18:34;;;;;;;19.88;18.77;;;;;;;;;;4997132;28;20456;-67
2022/10/19 14:21:05;;;;;;;20.10;18.90;;;;;;;;;;4999069;28;20031;-69
2022/10/19 14:23:34;;;;;;;19.20;18.10;;;;;;;;;;4994702;28;20038;-67
2022/10/19 14:26:05;;;;;;;19.48;18.38;;;;;;;;;;4998023;28;20034;-66
2022/10/19 14:28:32;;;;;;;18.35;17.30;;;;;;;;;;4998526;28;20037;-66
2022/10/19 14:31:18;;;;;;;18.65;17.60;;;;;;;;;;4997004;28;20121;-65
2022/10/19 14:33:50;;;;;;;17.63;16.63;;;;;;;;;;5001746;28;20026;-66
2022/10/19 14:36:18;;;;;;;17.25;16.15;;;;;;;;;;4997049;28;20077;-67
2022/10/19 14:38:45;;;;;;;15.80;14.80;;;;;;;;;;4996374;28;20049;-67
2022/10/19 14:41:26;;;;;;;18.30;17.25;;;;;;;;;;4996826;28;20038;-68
2022/10/19 14:43:52;;;;;;;15.60;14.70;;;;;;;;;;4998198;28;20033;-68